sensor_id;sensor_type;location;lat;lon;timestamp;pressure;altitude;pressure_sealevel;temperature;humidity
73558;BME280;61829;53.286;10.434;2023-03-14T00:02:04;98657.63;;;10.33;84.48
73558;BME280;61829;53.286;10.434;2023-03-14T00:04:30;98659.38;;;10.40;84.08
73558;BME280;61829;53.286;10.434;2023-03-14T00:06:56;98667.78;;;10.43;83.80
73558;BME280;61829;53.286;10.434;2023-03-14T00:09:21;98668.13;;;10.47;83.70
73558;BME280;61829;53.286;10.434;2023-03-14T00:11:47;98667.16;;;10.53;83.90
73558;BME280;61829;53.286;10.434;2023-03-14T00:14:13;98665.06;;;10.55;83.85
73558;BME280;61829;53.286;10.434;2023-03-14T00:16:41;98664.34;;;10.60;83.43
73558;BME280;61829;53.286;10.434;2023-03-14T00:19:06;98654.97;;;10.62;83.35
73558;BME280;61829;53.286;10.434;2023-03-14T00:21:33;98653.91;;;10.63;82.82
73558;BME280;61829;53.286;10.434;2023-03-14T00:23:58;98639.97;;;10.66;83.11
73558;BME280;61829;53.286;10.434;2023-03-14T00:26:24;98636.69;;;10.64;82.82
73558;BME280;61829;53.286;10.434;2023-03-14T00:28:51;98642.81;;;10.60;82.92
73558;BME280;61829;53.286;10.434;2023-03-14T00:31:19;98669.16;;;10.57;83.29
73558;BME280;61829;53.286;10.434;2023-03-14T00:33:45;98665.06;;;10.55;83.25
73558;BME280;61829;53.286;10.434;2023-03-14T00:36:13;98666.72;;;10.56;84.11
73558;BME280;61829;53.286;10.434;2023-03-14T00:38:41;98668.34;;;10.57;85.28
73558;BME280;61829;53.286;10.434;2023-03-14T00:41:13;98652.19;;;10.57;86.09
73558;BME280;61829;53.286;10.434;2023-03-14T00:43:39;98632.63;;;10.50;88.78
73558;BME280;61829;53.286;10.434;2023-03-14T00:46:06;98623.41;;;10.46;90.60
73558;BME280;61829;53.286;10.434;2023-03-14T00:48:32;98605.50;;;10.40;91.82
73558;BME280;61829;53.286;10.434;2023-03-14T00:50:58;98588.09;;;10.30;92.08
73558;BME280;61829;53.286;10.434;2023-03-14T00:53:24;98595.44;;;10.23;92.79
73558;BME280;61829;53.286;10.434;2023-03-14T00:55:50;98613.59;;;10.16;94.00
73558;BME280;61829;53.286;10.434;2023-03-14T00:58:17;98626.47;;;10.14;94.17
73558;BME280;61829;53.286;10.434;2023-03-14T01:00:44;98636.88;;;10.10;94.24
73558;BME280;61829;53.286;10.434;2023-03-14T01:03:11;98643.00;;;10.06;94.59
73558;BME280;61829;53.286;10.434;2023-03-14T01:05:38;98641.59;;;10.03;94.97
73558;BME280;61829;53.286;10.434;2023-03-14T01:08:04;98648.25;;;10.01;95.26
73558;BME280;61829;53.286;10.434;2023-03-14T01:10:30;98645.56;;;10.01;94.86
73558;BME280;61829;53.286;10.434;2023-03-14T01:12:56;98644.16;;;9.98;95.07
73558;BME280;61829;53.286;10.434;2023-03-14T01:15:22;98653.28;;;9.97;94.85
73558;BME280;61829;53.286;10.434;2023-03-14T01:17:48;98668.63;;;9.97;94.60
73558;BME280;61829;53.286;10.434;2023-03-14T01:20:14;98672.13;;;9.97;93.89
73558;BME280;61829;53.286;10.434;2023-03-14T01:22:41;98667.34;;;9.99;93.93
73558;BME280;61829;53.286;10.434;2023-03-14T01:25:10;98663.59;;;10.00;93.66
73558;BME280;61829;53.286;10.434;2023-03-14T01:27:37;98640.78;;;10.03;93.18
73558;BME280;61829;53.286;10.434;2023-03-14T01:30:03;98636.19;;;10.03;93.01
73558;BME280;61829;53.286;10.434;2023-03-14T01:32:29;98628.34;;;10.02;92.83
73558;BME280;61829;53.286;10.434;2023-03-14T01:34:56;98617.03;;;10.00;93.28
73558;BME280;61829;53.286;10.434;2023-03-14T01:37:21;98613.75;;;9.98;93.01
73558;BME280;61829;53.286;10.434;2023-03-14T01:39:47;98618.91;;;9.99;93.25
73558;BME280;61829;53.286;10.434;2023-03-14T01:42:14;98624.50;;;9.98;92.71
73558;BME280;61829;53.286;10.434;2023-03-14T01:44:54;98621.81;;;9.98;93.00
73558;BME280;61829;53.286;10.434;2023-03-14T01:47:20;98606.16;;;9.95;93.04
73558;BME280;61829;53.286;10.434;2023-03-14T01:49:49;98601.59;;;9.95;91.98
73558;BME280;61829;53.286;10.434;2023-03-14T01:52:20;98594.31;;;9.96;91.72
73558;BME280;61829;53.286;10.434;2023-03-14T01:54:58;98594.56;;;9.94;91.34
73558;BME280;61829;53.286;10.434;2023-03-14T01:57:31;98597.81;;;9.96;91.74
73558;BME280;61829;53.286;10.434;2023-03-14T02:00:02;98598.66;;;9.97;91.21
73558;BME280;61829;53.286;10.434;2023-03-14T02:02:31;98593.28;;;9.97;91.37
73558;BME280;61829;53.286;10.434;2023-03-14T02:04:58;98599.69;;;9.96;91.37
73558;BME280;61829;53.286;10.434;2023-03-14T02:07:30;98603.47;;;9.95;91.44
73558;BME280;61829;53.286;10.434;2023-03-14T02:09:58;98603.47;;;9.95;91.15
73558;BME280;61829;53.286;10.434;2023-03-14T02:12:25;98601.00;;;9.93;91.58
73558;BME280;61829;53.286;10.434;2023-03-14T02:14:52;98571.41;;;9.93;91.64
73558;BME280;61829;53.286;10.434;2023-03-14T02:17:19;98541.25;;;9.91;91.04
73558;BME280;61829;53.286;10.434;2023-03-14T02:20:12;98528.50;;;9.86;91.76
73558;BME280;61829;53.286;10.434;2023-03-14T02:22:42;98530.59;;;9.84;91.75
73558;BME280;61829;53.286;10.434;2023-03-14T02:28:01;98525.00;;;9.74;92.15
73558;BME280;61829;53.286;10.434;2023-03-14T02:30:30;98526.53;;;9.70;91.87
73558;BME280;61829;53.286;10.434;2023-03-14T02:33:00;98524.78;;;9.64;92.56
73558;BME280;61829;53.286;10.434;2023-03-14T02:35:33;98520.94;;;9.60;92.28
73558;BME280;61829;53.286;10.434;2023-03-14T02:38:10;98540.69;;;9.54;92.44
73558;BME280;61829;53.286;10.434;2023-03-14T02:40:38;98532.53;;;9.49;93.21
73558;BME280;61829;53.286;10.434;2023-03-14T02:43:04;98541.50;;;9.42;93.54
73558;BME280;61829;53.286;10.434;2023-03-14T02:45:39;98554.84;;;9.37;94.11
73558;BME280;61829;53.286;10.434;2023-03-14T02:48:09;98558.44;;;9.31;94.80
73558;BME280;61829;53.286;10.434;2023-03-14T02:50:45;98565.13;;;9.29;95.70
73558;BME280;61829;53.286;10.434;2023-03-14T02:53:15;98569.09;;;9.26;95.75
73558;BME280;61829;53.286;10.434;2023-03-14T02:55:45;98574.09;;;9.22;96.33
73558;BME280;61829;53.286;10.434;2023-03-14T02:58:11;98570.38;;;9.24;97.28
73558;BME280;61829;53.286;10.434;2023-03-14T03:00:36;98567.44;;;9.25;97.10
73558;BME280;61829;53.286;10.434;2023-03-14T03:03:02;98561.03;;;9.26;97.38
73558;BME280;61829;53.286;10.434;2023-03-14T03:05:28;98559.50;;;9.30;96.90
73558;BME280;61829;53.286;10.434;2023-03-14T03:07:54;98548.75;;;9.30;96.23
73558;BME280;61829;53.286;10.434;2023-03-14T03:10:20;98544.78;;;9.33;96.13
73558;BME280;61829;53.286;10.434;2023-03-14T03:12:45;98547.00;;;9.36;95.80
73558;BME280;61829;53.286;10.434;2023-03-14T03:15:12;98539.53;;;9.38;95.00
73558;BME280;61829;53.286;10.434;2023-03-14T03:17:37;98536.13;;;9.42;94.42
73558;BME280;61829;53.286;10.434;2023-03-14T03:20:03;98520.59;;;9.44;93.66
73558;BME280;61829;53.286;10.434;2023-03-14T03:22:30;98515.31;;;9.50;93.45
73558;BME280;61829;53.286;10.434;2023-03-14T03:24:56;98506.78;;;9.53;92.70
73558;BME280;61829;53.286;10.434;2023-03-14T03:27:22;98508.41;;;9.54;92.29
73558;BME280;61829;53.286;10.434;2023-03-14T03:29:48;98501.19;;;9.54;91.75
73558;BME280;61829;53.286;10.434;2023-03-14T03:32:13;98493.34;;;9.53;91.56
73558;BME280;61829;53.286;10.434;2023-03-14T03:34:39;98489.59;;;9.54;91.69
73558;BME280;61829;53.286;10.434;2023-03-14T03:37:05;98494.75;;;9.55;91.12
73558;BME280;61829;53.286;10.434;2023-03-14T03:39:31;98472.44;;;9.55;91.21
73558;BME280;61829;53.286;10.434;2023-03-14T03:41:56;98487.28;;;9.57;90.66
73558;BME280;61829;53.286;10.434;2023-03-14T03:44:22;98472.44;;;9.55;91.01
73558;BME280;61829;53.286;10.434;2023-03-14T03:46:48;98473.47;;;9.54;90.54
73558;BME280;61829;53.286;10.434;2023-03-14T03:49:14;98480.50;;;9.55;90.15
73558;BME280;61829;53.286;10.434;2023-03-14T03:51:40;98482.72;;;9.58;90.36
73558;BME280;61829;53.286;10.434;2023-03-14T03:54:06;98487.03;;;9.59;90.19
73558;BME280;61829;53.286;10.434;2023-03-14T03:56:32;98472.28;;;9.61;90.09
73558;BME280;61829;53.286;10.434;2023-03-14T03:58:57;98472.63;;;9.65;90.01
73558;BME280;61829;53.286;10.434;2023-03-14T04:01:23;98470.53;;;9.67;89.23
73558;BME280;61829;53.286;10.434;2023-03-14T04:03:49;98466.53;;;9.70;89.00
73558;BME280;61829;53.286;10.434;2023-03-14T04:06:15;98468.66;;;9.67;89.08
73558;BME280;61829;53.286;10.434;2023-03-14T04:08:41;98456.00;;;9.68;88.99
73558;BME280;61829;53.286;10.434;2023-03-14T04:11:07;98451.69;;;9.67;88.75
73558;BME280;61829;53.286;10.434;2023-03-14T04:13:33;98445.75;;;9.65;88.58
73558;BME280;61829;53.286;10.434;2023-03-14T04:15:58;98447.28;;;9.61;88.30
73558;BME280;61829;53.286;10.434;2023-03-14T04:18:25;98457.22;;;9.60;88.24
73558;BME280;61829;53.286;10.434;2023-03-14T04:20:55;98448.34;;;9.60;87.71
73558;BME280;61829;53.286;10.434;2023-03-14T04:23:24;98446.69;;;9.59;87.68
73558;BME280;61829;53.286;10.434;2023-03-14T04:25:51;98448.56;;;9.58;87.96
73558;BME280;61829;53.286;10.434;2023-03-14T04:28:19;98445.06;;;9.58;87.72
73558;BME280;61829;53.286;10.434;2023-03-14T04:30:45;98459.56;;;9.57;87.23
73558;BME280;61829;53.286;10.434;2023-03-14T04:33:11;98443.06;;;9.53;87.51
73558;BME280;61829;53.286;10.434;2023-03-14T04:35:38;98451.94;;;9.54;87.56
73558;BME280;61829;53.286;10.434;2023-03-14T04:38:04;98442.38;;;9.58;87.97
73558;BME280;61829;53.286;10.434;2023-03-14T04:40:29;98442.97;;;9.60;87.47
73558;BME280;61829;53.286;10.434;2023-03-14T04:42:56;98434.97;;;9.65;87.61
73558;BME280;61829;53.286;10.434;2023-03-14T04:45:21;98425.41;;;9.69;87.04
73558;BME280;61829;53.286;10.434;2023-03-14T04:47:47;98435.91;;;9.71;87.09
73558;BME280;61829;53.286;10.434;2023-03-14T04:50:13;98425.72;;;9.73;86.72
73558;BME280;61829;53.286;10.434;2023-03-14T04:52:39;98427.13;;;9.75;86.88
73558;BME280;61829;53.286;10.434;2023-03-14T04:55:04;98423.38;;;9.76;86.76
73558;BME280;61829;53.286;10.434;2023-03-14T04:57:31;98420.22;;;9.79;86.23
73558;BME280;61829;53.286;10.434;2023-03-14T04:59:56;98418.91;;;9.82;85.78
73558;BME280;61829;53.286;10.434;2023-03-14T05:02:22;98411.44;;;9.84;85.42
73558;BME280;61829;53.286;10.434;2023-03-14T05:04:48;98421.72;;;9.87;85.34
73558;BME280;61829;53.286;10.434;2023-03-14T05:07:14;98425.78;;;9.89;85.29
73558;BME280;61829;53.286;10.434;2023-03-14T05:09:39;98413.75;;;9.92;84.89
73558;BME280;61829;53.286;10.434;2023-03-14T05:12:06;98414.31;;;9.94;84.38
73558;BME280;61829;53.286;10.434;2023-03-14T05:14:31;98418.41;;;9.97;84.02
73558;BME280;61829;53.286;10.434;2023-03-14T05:16:57;98416.06;;;10.00;83.89
73558;BME280;61829;53.286;10.434;2023-03-14T05:19:23;98413.09;;;10.02;83.30
73558;BME280;61829;53.286;10.434;2023-03-14T05:21:49;98402.34;;;10.02;82.90
73558;BME280;61829;53.286;10.434;2023-03-14T05:24:15;98404.00;;;10.03;83.35
73558;BME280;61829;53.286;10.434;2023-03-14T05:26:41;98390.06;;;10.06;82.75
73558;BME280;61829;53.286;10.434;2023-03-14T05:29:06;98388.97;;;10.07;83.06
73558;BME280;61829;53.286;10.434;2023-03-14T05:31:32;98401.88;;;10.05;82.79
73558;BME280;61829;53.286;10.434;2023-03-14T05:33:58;98406.69;;;10.03;83.04
73558;BME280;61829;53.286;10.434;2023-03-14T05:36:24;98406.09;;;10.01;83.04
73558;BME280;61829;53.286;10.434;2023-03-14T05:38:50;98396.16;;;10.01;82.92
73558;BME280;61829;53.286;10.434;2023-03-14T05:41:18;98402.81;;;9.99;83.32
73558;BME280;61829;53.286;10.434;2023-03-14T05:43:43;98394.75;;;9.99;83.16
73558;BME280;61829;53.286;10.434;2023-03-14T05:46:09;98394.19;;;9.97;82.83
73558;BME280;61829;53.286;10.434;2023-03-14T05:48:35;98399.47;;;9.92;82.56
73558;BME280;61829;53.286;10.434;2023-03-14T05:51:02;98397.75;;;9.85;82.99
73558;BME280;61829;53.286;10.434;2023-03-14T05:53:28;98395.53;;;9.82;82.71
73558;BME280;61829;53.286;10.434;2023-03-14T05:55:55;98406.19;;;9.77;83.14
73558;BME280;61829;53.286;10.434;2023-03-14T05:58:21;98399.09;;;9.71;83.28
73558;BME280;61829;53.286;10.434;2023-03-14T06:00:51;98403.06;;;9.69;83.65
73558;BME280;61829;53.286;10.434;2023-03-14T06:03:16;98419.69;;;9.65;83.65
73558;BME280;61829;53.286;10.434;2023-03-14T06:05:42;98426.56;;;9.61;83.58
73558;BME280;61829;53.286;10.434;2023-03-14T06:08:08;98427.88;;;9.59;83.31
73558;BME280;61829;53.286;10.434;2023-03-14T06:10:35;98423.56;;;9.58;83.44
73558;BME280;61829;53.286;10.434;2023-03-14T06:13:01;98421.47;;;9.60;82.97
73558;BME280;61829;53.286;10.434;2023-03-14T06:15:30;98403.19;;;9.62;82.92
73558;BME280;61829;53.286;10.434;2023-03-14T06:17:58;98412.66;;;9.64;83.39
73558;BME280;61829;53.286;10.434;2023-03-14T06:20:24;98412.44;;;9.66;83.13
73558;BME280;61829;53.286;10.434;2023-03-14T06:22:50;98408.69;;;9.67;82.72
73558;BME280;61829;53.286;10.434;2023-03-14T06:25:16;98423.28;;;9.71;82.88
73558;BME280;61829;53.286;10.434;2023-03-14T06:27:42;98418.72;;;9.72;83.22
73558;BME280;61829;53.286;10.434;2023-03-14T06:30:09;98426.06;;;9.76;83.20
73558;BME280;61829;53.286;10.434;2023-03-14T06:32:34;98419.41;;;9.79;83.12
73558;BME280;61829;53.286;10.434;2023-03-14T06:35:00;98430.97;;;9.79;83.34
73558;BME280;61829;53.286;10.434;2023-03-14T06:37:27;98426.44;;;9.80;83.11
73558;BME280;61829;53.286;10.434;2023-03-14T06:39:54;98438.81;;;9.81;83.26
73558;BME280;61829;53.286;10.434;2023-03-14T06:42:20;98440.09;;;9.78;82.62
73558;BME280;61829;53.286;10.434;2023-03-14T06:44:47;98442.56;;;9.80;83.07
73558;BME280;61829;53.286;10.434;2023-03-14T06:47:12;98438.47;;;9.77;83.43
73558;BME280;61829;53.286;10.434;2023-03-14T06:49:38;98436.81;;;9.76;82.89
73558;BME280;61829;53.286;10.434;2023-03-14T06:52:04;98455.66;;;9.76;83.07
73558;BME280;61829;53.286;10.434;2023-03-14T06:54:30;98450.03;;;9.78;83.05
73558;BME280;61829;53.286;10.434;2023-03-14T06:56:56;98444.66;;;9.78;82.76
73558;BME280;61829;53.286;10.434;2023-03-14T06:59:22;98460.00;;;9.77;83.02
73558;BME280;61829;53.286;10.434;2023-03-14T07:01:48;98460.81;;;9.78;82.59
73558;BME280;61829;53.286;10.434;2023-03-14T07:04:14;98460.81;;;9.78;82.80
73558;BME280;61829;53.286;10.434;2023-03-14T07:06:39;98460.00;;;9.77;82.94
73558;BME280;61829;53.286;10.434;2023-03-14T07:09:10;98460.22;;;9.76;82.84
73558;BME280;61829;53.286;10.434;2023-03-14T07:11:37;98465.84;;;9.74;83.32
73558;BME280;61829;53.286;10.434;2023-03-14T07:14:03;98456.59;;;9.70;82.68
73558;BME280;61829;53.286;10.434;2023-03-14T07:16:29;98463.84;;;9.70;82.96
73558;BME280;61829;53.286;10.434;2023-03-14T07:19:00;98463.53;;;9.66;83.56
73558;BME280;61829;53.286;10.434;2023-03-14T07:21:26;98460.84;;;9.66;83.72
73558;BME280;61829;53.286;10.434;2023-03-14T07:23:52;98473.69;;;9.64;84.24
73558;BME280;61829;53.286;10.434;2023-03-14T07:26:17;98469.38;;;9.63;84.87
73558;BME280;61829;53.286;10.434;2023-03-14T07:28:43;98487.13;;;9.64;85.97
73558;BME280;61829;53.286;10.434;2023-03-14T07:31:09;98483.31;;;9.60;86.42
73558;BME280;61829;53.286;10.434;2023-03-14T07:33:35;98491.38;;;9.60;86.30
73558;BME280;61829;53.286;10.434;2023-03-14T07:36:02;98485.41;;;9.58;87.46
73558;BME280;61829;53.286;10.434;2023-03-14T07:38:29;98495.81;;;9.54;87.50
73558;BME280;61829;53.286;10.434;2023-03-14T07:41:01;98495.81;;;9.54;87.88
73558;BME280;61829;53.286;10.434;2023-03-14T07:43:27;98487.28;;;9.57;88.40
73558;BME280;61829;53.286;10.434;2023-03-14T07:45:53;98496.28;;;9.63;87.76
73558;BME280;61829;53.286;10.434;2023-03-14T07:48:19;98486.66;;;9.67;87.78
73558;BME280;61829;53.286;10.434;2023-03-14T07:50:51;98489.22;;;9.74;87.77
73558;BME280;61829;53.286;10.434;2023-03-14T07:53:18;98490.38;;;9.78;87.27
73558;BME280;61829;53.286;10.434;2023-03-14T07:55:44;98486.75;;;9.84;87.12
73558;BME280;61829;53.286;10.434;2023-03-14T07:58:11;98482.06;;;9.91;86.95
73558;BME280;61829;53.286;10.434;2023-03-14T08:00:37;98484.72;;;10.03;86.30
73558;BME280;61829;53.286;10.434;2023-03-14T08:03:03;98487.25;;;10.09;85.02
73558;BME280;61829;53.286;10.434;2023-03-14T08:05:29;98482.31;;;10.18;84.29
73558;BME280;61829;53.286;10.434;2023-03-14T08:07:55;98479.22;;;10.26;83.91
73558;BME280;61829;53.286;10.434;2023-03-14T08:10:21;98473.50;;;10.34;83.65
73558;BME280;61829;53.286;10.434;2023-03-14T08:13:12;98478.59;;;10.48;82.77
73558;BME280;61829;53.286;10.434;2023-03-14T08:15:37;98476.41;;;10.62;82.52
73558;BME280;61829;53.286;10.434;2023-03-14T08:18:04;98472.56;;;10.74;81.27
73558;BME280;61829;53.286;10.434;2023-03-14T08:20:30;98473.88;;;10.89;81.05
73558;BME280;61829;53.286;10.434;2023-03-14T08:22:58;98472.50;;;11.03;79.87
73558;BME280;61829;53.286;10.434;2023-03-14T08:25:25;98471.84;;;11.13;79.17
73558;BME280;61829;53.286;10.434;2023-03-14T08:27:51;98473.06;;;11.22;78.45
73558;BME280;61829;53.286;10.434;2023-03-14T08:30:18;98476.63;;;11.28;78.00
73558;BME280;61829;53.286;10.434;2023-03-14T08:32:44;98467.16;;;11.25;77.56
73558;BME280;61829;53.286;10.434;2023-03-14T08:35:10;98465.66;;;11.34;77.80
73558;BME280;61829;53.286;10.434;2023-03-14T08:37:36;98475.22;;;11.42;77.23
73558;BME280;61829;53.286;10.434;2023-03-14T08:40:04;98461.38;;;11.55;76.59
73558;BME280;61829;53.286;10.434;2023-03-14T08:42:36;98451.50;;;11.61;75.62
73558;BME280;61829;53.286;10.434;2023-03-14T08:45:01;98454.09;;;11.56;75.08
73558;BME280;61829;53.286;10.434;2023-03-14T08:47:27;98450.03;;;11.53;75.37
73558;BME280;61829;53.286;10.434;2023-03-14T08:49:53;98449.53;;;11.56;74.86
73558;BME280;61829;53.286;10.434;2023-03-14T08:52:19;98448.72;;;11.56;74.72
73558;BME280;61829;53.286;10.434;2023-03-14T08:54:46;98455.00;;;11.61;74.34
73558;BME280;61829;53.286;10.434;2023-03-14T08:57:12;98451.28;;;11.67;74.30
73558;BME280;61829;53.286;10.434;2023-03-14T08:59:38;98444.41;;;11.99;73.25
73558;BME280;61829;53.286;10.434;2023-03-14T09:02:05;98445.50;;;12.25;72.92
73558;BME280;61829;53.286;10.434;2023-03-14T09:04:31;98449.88;;;12.58;70.83
73558;BME280;61829;53.286;10.434;2023-03-14T09:06:58;98453.81;;;12.77;69.51
73558;BME280;61829;53.286;10.434;2023-03-14T09:09:25;98457.50;;;12.98;67.86
73558;BME280;61829;53.286;10.434;2023-03-14T09:11:52;98451.09;;;13.10;67.00
73558;BME280;61829;53.286;10.434;2023-03-14T09:14:18;98452.41;;;13.07;67.30
73558;BME280;61829;53.286;10.434;2023-03-14T09:16:44;98443.44;;;13.01;66.33
73558;BME280;61829;53.286;10.434;2023-03-14T09:19:10;98444.22;;;12.92;66.79
73558;BME280;61829;53.286;10.434;2023-03-14T09:21:36;98437.38;;;12.84;66.40
73558;BME280;61829;53.286;10.434;2023-03-14T09:24:04;98452.91;;;12.67;66.95
73558;BME280;61829;53.286;10.434;2023-03-14T09:26:30;98454.75;;;12.61;67.33
73558;BME280;61829;53.286;10.434;2023-03-14T09:28:56;98458.50;;;12.55;67.32
73558;BME280;61829;53.286;10.434;2023-03-14T09:31:22;98460.91;;;12.56;67.61
73558;BME280;61829;53.286;10.434;2023-03-14T09:33:48;98460.69;;;12.58;67.03
73558;BME280;61829;53.286;10.434;2023-03-14T09:36:14;98456.56;;;12.83;66.64
73558;BME280;61829;53.286;10.434;2023-03-14T09:38:40;98453.00;;;12.77;65.68
73558;BME280;61829;53.286;10.434;2023-03-14T09:41:18;98462.31;;;12.91;66.64
73558;BME280;61829;53.286;10.434;2023-03-14T09:43:47;98454.34;;;13.12;65.96
73558;BME280;61829;53.286;10.434;2023-03-14T09:46:16;98450.53;;;13.08;65.83
73558;BME280;61829;53.286;10.434;2023-03-14T09:48:43;98448.94;;;13.12;65.31
73558;BME280;61829;53.286;10.434;2023-03-14T09:51:18;98446.91;;;13.29;65.45
73558;BME280;61829;53.286;10.434;2023-03-14T09:53:47;98439.41;;;13.36;64.77
73558;BME280;61829;53.286;10.434;2023-03-14T09:56:18;98451.53;;;13.29;63.72
73558;BME280;61829;53.286;10.434;2023-03-14T09:58:49;98453.59;;;13.21;64.36
73558;BME280;61829;53.286;10.434;2023-03-14T10:01:19;98454.94;;;13.19;64.53
73558;BME280;61829;53.286;10.434;2023-03-14T10:03:47;98452.78;;;13.21;64.97
73558;BME280;61829;53.286;10.434;2023-03-14T10:06:14;98452.88;;;13.31;64.84
73558;BME280;61829;53.286;10.434;2023-03-14T10:08:43;98452.13;;;13.41;64.57
73558;BME280;61829;53.286;10.434;2023-03-14T10:11:16;98452.16;;;13.46;64.39
73558;BME280;61829;53.286;10.434;2023-03-14T10:14:08;98449.19;;;13.47;64.10
73558;BME280;61829;53.286;10.434;2023-03-14T10:16:37;98466.50;;;13.46;64.09
73558;BME280;61829;53.286;10.434;2023-03-14T10:19:09;98463.75;;;13.41;64.10
73558;BME280;61829;53.286;10.434;2023-03-14T10:21:41;98462.59;;;13.27;65.12
73558;BME280;61829;53.286;10.434;2023-03-14T10:26:52;98464.97;;;12.86;68.57
73558;BME280;61829;53.286;10.434;2023-03-14T10:29:18;98476.47;;;12.71;70.02
73558;BME280;61829;53.286;10.434;2023-03-14T10:31:56;98484.13;;;12.52;70.94
73558;BME280;61829;53.286;10.434;2023-03-14T10:34:33;98501.75;;;12.33;75.34
73558;BME280;61829;53.286;10.434;2023-03-14T10:37:07;98514.66;;;12.04;79.08
73558;BME280;61829;53.286;10.434;2023-03-14T10:39:40;98523.41;;;11.72;83.17
73558;BME280;61829;53.286;10.434;2023-03-14T10:42:26;98523.59;;;11.49;84.62
73558;BME280;61829;53.286;10.434;2023-03-14T10:45:36;98544.13;;;11.16;86.76
73558;BME280;61829;53.286;10.434;2023-03-14T10:48:33;98553.25;;;10.98;87.87
73558;BME280;61829;53.286;10.434;2023-03-14T10:56:18;98622.88;;;9.85;81.66
73558;BME280;61829;53.286;10.434;2023-03-14T10:58:46;98629.78;;;9.46;84.08
73558;BME280;61829;53.286;10.434;2023-03-14T11:01:41;98635.84;;;8.99;84.86
73558;BME280;61829;53.286;10.434;2023-03-14T11:07:19;98658.41;;;8.80;87.48
73558;BME280;61829;53.286;10.434;2023-03-14T11:10:08;98665.34;;;8.69;86.48
73558;BME280;61829;53.286;10.434;2023-03-14T11:19:01;98688.31;;;8.28;87.68
73558;BME280;61829;53.286;10.434;2023-03-14T11:24:33;98711.09;;;7.75;88.94
73558;BME280;61829;53.286;10.434;2023-03-14T11:27:22;98721.38;;;7.53;89.75
73558;BME280;61829;53.286;10.434;2023-03-14T11:29:58;98729.38;;;7.22;89.97
73558;BME280;61829;53.286;10.434;2023-03-14T11:35:26;98765.97;;;6.96;92.48
73558;BME280;61829;53.286;10.434;2023-03-14T11:38:58;98787.22;;;6.91;91.98
73558;BME280;61829;53.286;10.434;2023-03-14T11:40:54;98798.41;;;6.68;91.47
73558;BME280;61829;53.286;10.434;2023-03-14T11:45:58;98832.41;;;6.54;90.56
73558;BME280;61829;53.286;10.434;2023-03-14T11:48:41;98839.22;;;6.43;90.37
73558;BME280;61829;53.286;10.434;2023-03-14T11:51:22;98854.84;;;6.33;89.30
73558;BME280;61829;53.286;10.434;2023-03-14T11:59:28;98898.22;;;6.02;87.65
73558;BME280;61829;53.286;10.434;2023-03-14T12:01:57;98926.91;;;5.73;87.38
73558;BME280;61829;53.286;10.434;2023-03-14T12:06:53;98923.94;;;5.48;87.73
73558;BME280;61829;53.286;10.434;2023-03-14T12:09:22;98945.06;;;5.43;86.51
73558;BME280;61829;53.286;10.434;2023-03-14T12:11:51;98943.16;;;5.30;86.79
73558;BME280;61829;53.286;10.434;2023-03-14T12:16:48;98952.38;;;5.28;87.82
73558;BME280;61829;53.286;10.434;2023-03-14T12:19:21;98955.84;;;5.22;86.60
73558;BME280;61829;53.286;10.434;2023-03-14T12:24:26;98974.25;;;5.10;87.58
73558;BME280;61829;53.286;10.434;2023-03-14T12:27:00;98988.81;;;5.07;88.09
73558;BME280;61829;53.286;10.434;2023-03-14T12:29:27;98994.34;;;5.06;89.60
73558;BME280;61829;53.286;10.434;2023-03-14T12:32:24;98987.94;;;5.00;86.04
73558;BME280;61829;53.286;10.434;2023-03-14T12:34:51;99004.44;;;4.82;85.13
73558;BME280;61829;53.286;10.434;2023-03-14T12:37:23;99018.69;;;4.68;85.02
73558;BME280;61829;53.286;10.434;2023-03-14T12:40:18;99045.50;;;4.60;84.87
73558;BME280;61829;53.286;10.434;2023-03-14T12:45:25;99059.09;;;4.65;86.37
73558;BME280;61829;53.286;10.434;2023-03-14T12:48:00;99066.28;;;4.64;86.11
73558;BME280;61829;53.286;10.434;2023-03-14T12:51:15;99060.78;;;4.72;85.95
73558;BME280;61829;53.286;10.434;2023-03-14T12:53:36;99081.69;;;4.69;85.21
73558;BME280;61829;53.286;10.434;2023-03-14T13:01:33;99096.13;;;4.53;83.11
73558;BME280;61829;53.286;10.434;2023-03-14T13:04:10;99099.41;;;4.55;82.12
73558;BME280;61829;53.286;10.434;2023-03-14T13:11:53;99114.19;;;4.58;80.79
73558;BME280;61829;53.286;10.434;2023-03-14T13:14:19;99122.03;;;4.59;82.77
73558;BME280;61829;53.286;10.434;2023-03-14T13:16:49;99142.22;;;4.68;82.76
73558;BME280;61829;53.286;10.434;2023-03-14T13:19:26;99146.16;;;4.72;83.15
73558;BME280;61829;53.286;10.434;2023-03-14T13:22:02;99140.28;;;4.77;83.31
73558;BME280;61829;53.286;10.434;2023-03-14T13:24:33;99140.81;;;4.87;82.68
73558;BME280;61829;53.286;10.434;2023-03-14T13:27:00;99143.97;;;4.98;81.65
73558;BME280;61829;53.286;10.434;2023-03-14T13:29:28;99156.19;;;5.07;81.18
73558;BME280;61829;53.286;10.434;2023-03-14T13:31:56;99162.78;;;5.11;81.88
73558;BME280;61829;53.286;10.434;2023-03-14T13:34:26;99167.38;;;5.17;82.41
73558;BME280;61829;53.286;10.434;2023-03-14T13:36:53;99164.53;;;5.18;82.70
73558;BME280;61829;53.286;10.434;2023-03-14T13:39:21;99168.66;;;5.21;80.46
73558;BME280;61829;53.286;10.434;2023-03-14T13:41:57;99174.72;;;5.15;80.78
73558;BME280;61829;53.286;10.434;2023-03-14T13:44:50;99175.00;;;4.99;82.32
73558;BME280;61829;53.286;10.434;2023-03-14T13:47:20;99180.44;;;4.90;83.45
73558;BME280;61829;53.286;10.434;2023-03-14T13:49:46;99190.81;;;4.64;85.09
73558;BME280;61829;53.286;10.434;2023-03-14T13:52:24;99186.88;;;4.60;86.68
73558;BME280;61829;53.286;10.434;2023-03-14T13:54:54;99191.84;;;4.63;86.31
73558;BME280;61829;53.286;10.434;2023-03-14T13:57:21;99199.28;;;4.67;88.36
73558;BME280;61829;53.286;10.434;2023-03-14T13:59:59;99201.09;;;4.67;87.60
73558;BME280;61829;53.286;10.434;2023-03-14T14:02:26;99213.72;;;4.73;86.50